Stk-1020 — UCYT — position and weather

sailwx.info

Track history (hours):
 
Tides and Currents Weather Stations Pressure Air Temp Water Temp Dewpoint Dewpoint Depression Visibility Wind Speed Wind Dir Waves Ship Positions

Stk-1020

Last reported at 2017-Jun-28 05:22 UTC. Time now 2017-Jun-29 11:04 UTC.
Position N 59°52' E 030°29'.

Length 82 m; draft 2.4 m.

Type: Cargo ship. MMSI: 273362200.

Date/timePositionNaut miles runAvg speedWind from/ knotsBaromVisibWave heightAir tempDewpointWater temp
2017-Jun-28 05:22N 59°52' E 030°29'1 1.6
2017-Jun-28 04:46N 59°52' E 030°28'0 0.0
2017-Jun-28 03:05N 59°52' E 030°28'0 0.0
2017-Jun-28 03:00N 59°52' E 030°28'0 0.0
2017-Jun-28 02:27N 59°52' E 030°28'0 0.0
2017-Jun-28 02:00N 59°52' E 030°28'0 0.0
2017-Jun-28 01:30N 59°52' E 030°28'0 0.0
2017-Jun-28 00:55N 59°52' E 030°28'1 1.5
2017-Jun-28 00:29N 59°53' E 030°27'3 6.0
2017-Jun-28 00:00N 59°55' E 030°24'1 1.1
2017-Jun-27 23:30N 59°56' E 030°24'2 3.5
2017-Jun-27 23:00N 59°57' E 030°22'3 5.2
2017-Jun-27 22:28N 59°56' E 030°17'0 0.1
2017-Jun-27 21:59N 59°56' E 030°17'0 0.0
2017-Jun-27 21:29N 59°56' E 030°17'0 0.0
2017-Jun-27 20:59N 59°56' E 030°17'0 0.0
2017-Jun-27 20:30N 59°56' E 030°17'0 0.0
2017-Jun-27 20:00N 59°56' E 030°17'0 0.0
2017-Jun-27 19:30N 59°56' E 030°17'0 0.0
2017-Jun-27 19:00N 59°56' E 030°17'0 0.0
2017-Jun-27 18:30N 59°56' E 030°17'0 0.0
2017-Jun-27 18:00N 59°56' E 030°17'0 0.0
2017-Jun-27 17:27N 59°56' E 030°17'0 0.0
2017-Jun-27 17:00N 59°56' E 030°17'0 0.0
2017-Jun-27 16:30N 59°56' E 030°17'0 0.0
2017-Jun-27 16:00N 59°56' E 030°17'0 0.0
2017-Jun-27 15:30N 59°56' E 030°17'0 0.0
2017-Jun-27 15:00N 59°56' E 030°17'0 0.0
2017-Jun-27 14:00N 59°56' E 030°17'0 0.0
2017-Jun-27 13:30N 59°56' E 030°17'0 0.0
2017-Jun-27 13:00N 59°56' E 030°17'1 2.4
2017-Jun-27 12:30N 59°55' E 030°16'3 6.2
2017-Jun-27 12:00N 59°53' E 030°11'4 7.7
2017-Jun-27 11:30N 59°55' E 030°04'4 8.1
2017-Jun-27 11:00N 59°56' E 029°56'4 8.6
2017-Jun-27 10:30N 59°58' E 029°48'3 6.4
2017-Jun-27 10:00N 59°59' E 029°43'20 7.9
2017-Jun-27 07:28N 60°09' E 029°07'4 8.4
2017-Jun-27 07:00N 60°09' E 028°59'4 8.2
2017-Jun-27 06:30N 60°11' E 028°52'4 8.2
2017-Jun-27 06:00N 60°12' E 028°44'4 8.1
2017-Jun-27 05:30N 60°14' E 028°37'4 8.2
2017-Jun-27 05:01N 60°16' E 028°31'4 8.0
2017-Jun-27 04:31N 60°19' E 028°25'4 7.0
2017-Jun-27 04:00N 60°22' E 028°21'4 7.3
2017-Jun-27 03:31N 60°25' E 028°20'3 6.6
2017-Jun-27 03:01N 60°29' E 028°21'4 7.7
2017-Jun-27 02:30N 60°33' E 028°21'4 7.1
2017-Jun-27 02:01N 60°35' E 028°26'4 7.4
2017-Jun-27 01:31N 60°37' E 028°33'4 7.6
2017-Jun-27 01:00N 60°40' E 028°38'3 7.0
2017-Jun-27 00:31N 60°42' E 028°42'3 6.9
2017-Jun-27 00:00N 60°46' E 028°42'3 6.2
2017-Jun-26 23:31N 60°49' E 028°44'0 0.7
2017-Jun-26 23:01N 60°49' E 028°44'1 2.2
2017-Jun-26 22:31N 60°50' E 028°44'3 6.7
2017-Jun-26 22:00N 60°53' E 028°40'1 2.9
2017-Jun-26 21:31N 60°54' E 028°37'1 1.8
2017-Jun-26 21:00N 60°54' E 028°37'0 0.0
2017-Jun-26 20:31N 60°54' E 028°37'2 3.4
2017-Jun-26 20:01N 60°56' E 028°36'3 6.8
2017-Jun-26 19:30N 60°58' E 028°31'3 6.6
2017-Jun-26 19:01N 61°01' E 028°27'2 3.8
2017-Jun-26 18:31N 61°02' E 028°24'3 5.4
2017-Jun-26 18:00N 61°04' E 028°19'1 1.4
2017-Jun-26 17:31N 61°04' E 028°18'1 2.4
2017-Jun-26 17:01N 61°05' E 028°16'3 5.3
2017-Jun-26 16:31N 61°07' E 028°19'4 7.8
2017-Jun-26 16:01N 61°10' E 028°24'4 7.7
2017-Jun-26 15:31N 61°11' E 028°32'4 7.4
2017-Jun-26 15:01N 61°12' E 028°39'4 7.3
2017-Jun-26 14:30N 61°15' E 028°44'2 2.3
2017-Jun-26 13:28N 61°14' E 028°49'0 0.0
2017-Jun-26 12:52N 61°14' E 028°49'0 0.0
2017-Jun-26 12:28N 61°14' E 028°49'0 0.0
2017-Jun-26 11:59N 61°14' E 028°49'0 0.0
2017-Jun-26 11:26N 61°14' E 028°49'0 0.0
2017-Jun-26 10:59N 61°14' E 028°49'0 0.0
2017-Jun-26 10:30N 61°14' E 028°49'0 0.0
2017-Jun-26 10:00N 61°14' E 028°49'0 0.0
2017-Jun-26 09:30N 61°14' E 028°49'0 0.0
2017-Jun-26 08:58N 61°14' E 028°49'0 0.0
2017-Jun-26 08:28N 61°14' E 028°49'0 0.0
2017-Jun-26 07:58N 61°14' E 028°49'0 0.0
2017-Jun-26 07:30N 61°14' E 028°49'0 0.0
2017-Jun-26 07:00N 61°14' E 028°49'0 0.0
2017-Jun-26 06:30N 61°14' E 028°49'0 0.0
2017-Jun-26 06:00N 61°14' E 028°49'0 0.0
2017-Jun-26 05:30N 61°14' E 028°49'0 0.0
2017-Jun-26 05:01N 61°14' E 028°49'0 0.0
2017-Jun-26 04:30N 61°14' E 028°49'0 0.0
2017-Jun-26 04:00N 61°14' E 028°49'0 0.0
2017-Jun-26 03:30N 61°14' E 028°49'0 0.2
2017-Jun-26 03:00N 61°14' E 028°49'3 5.4
2017-Jun-26 02:30N 61°14' E 028°44'4 7.8
2017-Jun-26 02:00N 61°12' E 028°37'4 7.7
2017-Jun-26 01:30N 61°11' E 028°30'4 7.3
2017-Jun-26 01:00N 61°10' E 028°23'3 6.0
2017-Jun-26 00:30N 61°07' E 028°18'3 5.8
2017-Jun-26 00:00N 61°05' E 028°16'1 2.0
2017-Jun-25 23:30N 61°04' E 028°18'1 1.3
2017-Jun-25 23:00N 61°04' E 028°19'2 3.6
2017-Jun-25 22:30N 61°03' E 028°22'1 2.2
2017-Jun-25 22:00N 61°02' E 028°24'0 0.7
2017-Jun-25 21:30N 61°02' E 028°25'3 5.3
2017-Jun-25 21:00N 61°00' E 028°28'3 5.6
2017-Jun-25 20:30N 60°58' E 028°32'3 5.7
2017-Jun-25 20:00N 60°56' E 028°36'1 3.0
2017-Jun-25 19:30N 60°55' E 028°37'0 0.2
2017-Jun-25 19:00N 60°54' E 028°37'1 1.3
2017-Jun-25 18:30N 60°54' E 028°37'1 1.5
2017-Jun-25 18:00N 60°53' E 028°38'1 1.4
2017-Jun-25 17:30N 60°53' E 028°39'3 6.3
2017-Jun-25 17:00N 60°50' E 028°44'1 1.3
2017-Jun-25 16:30N 60°50' E 028°44'1 2.5
2017-Jun-25 16:00N 60°49' E 028°44'0 0.2
2017-Jun-25 15:30N 60°49' E 028°44'0 0.0
2017-Jun-25 15:00N 60°49' E 028°44'1 2.5
2017-Jun-25 14:30N 60°47' E 028°43'6 6.3
2017-Jun-25 13:30N 60°41' E 028°41'4 7.9
2017-Jun-25 13:01N 60°39' E 028°35'4 7.6
2017-Jun-25 12:31N 60°36' E 028°30'4 7.5
2017-Jun-25 12:00N 60°34' E 028°24'4 7.5
2017-Jun-25 11:30N 60°30' E 028°22'4 7.5
2017-Jun-25 11:00N 60°27' E 028°20'4 8.3
2017-Jun-25 10:30N 60°23' E 028°21'4 7.8
2017-Jun-25 10:01N 60°19' E 028°24'4 8.1
2017-Jun-25 09:30N 60°16' E 028°30'4 8.0
2017-Jun-25 09:00N 60°14' E 028°37'4 7.9
2017-Jun-25 08:30N 60°12' E 028°44'4 7.8
2017-Jun-25 08:00N 60°10' E 028°51'4 7.6
2017-Jun-25 07:30N 60°08' E 028°58'4 7.6
2017-Jun-25 07:00N 60°07' E 029°04'5 7.4
2017-Jun-25 06:21N 60°05' E 029°13'13 7.5
2017-Jun-25 04:40N 60°00' E 029°37'1 7.6
2017-Jun-25 04:28N 59°60' E 029°40'4 7.6
2017-Jun-25 04:00N 59°59' E 029°46'1 1.7
2017-Jun-25 03:30N 59°58' E 029°48'0 0.1
2017-Jun-25 03:00N 59°58' E 029°48'3 7.0
2017-Jun-25 02:31N 59°57' E 029°54'4 7.0
2017-Jun-25 02:01N 59°55' E 030°00'4 7.6
2017-Jun-25 01:30N 59°54' E 030°08'3 5.7
2017-Jun-25 01:00N 59°54' E 030°13'4 7.1
2017-Jun-25 00:30N 59°56' E 030°18'3 5.9
2017-Jun-25 00:01N 59°57' E 030°24'3 5.5
2017-Jun-24 23:30N 59°55' E 030°25'3 0.2
2017-Jun-24 07:59N 59°52' E 030°29'  
2017-Jun-18 23:32N 59°56' E 030°24'4 0.3
2017-Jun-18 11:38N 59°56' E 030°16'1 6.7
2017-Jun-18 11:30N 59°55' E 030°15'4 8.1
2017-Jun-18 11:00N 59°56' E 030°08'4 8.4
2017-Jun-18 10:28N 59°56' E 029°59'8 8.2
2017-Jun-18 09:28N 59°59' E 029°44'3 7.5
2017-Jun-18 09:00N 60°00' E 029°37'4 8.6
2017-Jun-18 08:30N 60°02' E 029°29'5 9.0
2017-Jun-18 08:00N 60°04' E 029°22'5 9.1
2017-Jun-18 07:30N 60°08' E 029°16'4 8.5
2017-Jun-18 07:00N 60°09' E 029°08'5 9.1
2017-Jun-18 06:30N 60°09' E 028°59'4 9.0
2017-Jun-18 06:00N 60°11' E 028°51'5 9.1
2017-Jun-18 05:30N 60°12' E 028°42'  
Track history (hours):
 
Tides and Currents Weather Stations Pressure Air Temp Water Temp Dewpoint Dewpoint Depression Visibility Wind Speed Wind Dir Waves Ship Positions

Stk-1020

Last reported at 2017-Jun-28 05:22 UTC. Time now 2017-Jun-29 11:04 UTC.
Position N 59°52' E 030°29'.

Length 82 m; draft 2.4 m.

Type: Cargo ship. MMSI: 273362200.

Date/timePositionNaut miles runAvg speedWind from/ knotsBaromVisibWave heightAir tempDewpointWater temp
2017-Jun-28 05:22N 59°52' E 030°29'1 1.6
2017-Jun-28 04:46N 59°52' E 030°28'0 0.0
2017-Jun-28 03:05N 59°52' E 030°28'0 0.0
2017-Jun-28 03:00N 59°52' E 030°28'0 0.0
2017-Jun-28 02:27N 59°52' E 030°28'0 0.0
2017-Jun-28 02:00N 59°52' E 030°28'0 0.0
2017-Jun-28 01:30N 59°52' E 030°28'0 0.0
2017-Jun-28 00:55N 59°52' E 030°28'1 1.5
2017-Jun-28 00:29N 59°53' E 030°27'3 6.0
2017-Jun-28 00:00N 59°55' E 030°24'1 1.1
2017-Jun-27 23:30N 59°56' E 030°24'2 3.5
2017-Jun-27 23:00N 59°57' E 030°22'3 5.2
2017-Jun-27 22:28N 59°56' E 030°17'0 0.1
2017-Jun-27 21:59N 59°56' E 030°17'0 0.0
2017-Jun-27 21:29N 59°56' E 030°17'0 0.0
2017-Jun-27 20:59N 59°56' E 030°17'0 0.0
2017-Jun-27 20:30N 59°56' E 030°17'0 0.0
2017-Jun-27 20:00N 59°56' E 030°17'0 0.0
2017-Jun-27 19:30N 59°56' E 030°17'0 0.0
2017-Jun-27 19:00N 59°56' E 030°17'0 0.0
2017-Jun-27 18:30N 59°56' E 030°17'0 0.0
2017-Jun-27 18:00N 59°56' E 030°17'0 0.0
2017-Jun-27 17:27N 59°56' E 030°17'0 0.0
2017-Jun-27 17:00N 59°56' E 030°17'0 0.0
2017-Jun-27 16:30N 59°56' E 030°17'0 0.0
2017-Jun-27 16:00N 59°56' E 030°17'0 0.0
2017-Jun-27 15:30N 59°56' E 030°17'0 0.0
2017-Jun-27 15:00N 59°56' E 030°17'0 0.0
2017-Jun-27 14:00N 59°56' E 030°17'0 0.0
2017-Jun-27 13:30N 59°56' E 030°17'0 0.0
2017-Jun-27 13:00N 59°56' E 030°17'1 2.4
2017-Jun-27 12:30N 59°55' E 030°16'3 6.2
2017-Jun-27 12:00N 59°53' E 030°11'4 7.7
2017-Jun-27 11:30N 59°55' E 030°04'4 8.1
2017-Jun-27 11:00N 59°56' E 029°56'4 8.6
2017-Jun-27 10:30N 59°58' E 029°48'3 6.4
2017-Jun-27 10:00N 59°59' E 029°43'20 7.9
2017-Jun-27 07:28N 60°09' E 029°07'4 8.4
2017-Jun-27 07:00N 60°09' E 028°59'4 8.2
2017-Jun-27 06:30N 60°11' E 028°52'4 8.2
2017-Jun-27 06:00N 60°12' E 028°44'4 8.1
2017-Jun-27 05:30N 60°14' E 028°37'4 8.2
2017-Jun-27 05:01N 60°16' E 028°31'4 8.0
2017-Jun-27 04:31N 60°19' E 028°25'4 7.0
2017-Jun-27 04:00N 60°22' E 028°21'4 7.3
2017-Jun-27 03:31N 60°25' E 028°20'3 6.6
2017-Jun-27 03:01N 60°29' E 028°21'4 7.7
2017-Jun-27 02:30N 60°33' E 028°21'4 7.1
2017-Jun-27 02:01N 60°35' E 028°26'4 7.4
2017-Jun-27 01:31N 60°37' E 028°33'4 7.6
2017-Jun-27 01:00N 60°40' E 028°38'3 7.0
2017-Jun-27 00:31N 60°42' E 028°42'3 6.9
2017-Jun-27 00:00N 60°46' E 028°42'3 6.2
2017-Jun-26 23:31N 60°49' E 028°44'0 0.7
2017-Jun-26 23:01N 60°49' E 028°44'1 2.2
2017-Jun-26 22:31N 60°50' E 028°44'3 6.7
2017-Jun-26 22:00N 60°53' E 028°40'1 2.9
2017-Jun-26 21:31N 60°54' E 028°37'1 1.8
2017-Jun-26 21:00N 60°54' E 028°37'0 0.0
2017-Jun-26 20:31N 60°54' E 028°37'2 3.4
2017-Jun-26 20:01N 60°56' E 028°36'3 6.8
2017-Jun-26 19:30N 60°58' E 028°31'3 6.6
2017-Jun-26 19:01N 61°01' E 028°27'2 3.8
2017-Jun-26 18:31N 61°02' E 028°24'3 5.4
2017-Jun-26 18:00N 61°04' E 028°19'1 1.4
2017-Jun-26 17:31N 61°04' E 028°18'1 2.4
2017-Jun-26 17:01N 61°05' E 028°16'3 5.3
2017-Jun-26 16:31N 61°07' E 028°19'4 7.8
2017-Jun-26 16:01N 61°10' E 028°24'4 7.7
2017-Jun-26 15:31N 61°11' E 028°32'4 7.4
2017-Jun-26 15:01N 61°12' E 028°39'4 7.3
2017-Jun-26 14:30N 61°15' E 028°44'2 2.3
2017-Jun-26 13:28N 61°14' E 028°49'0 0.0
2017-Jun-26 12:52N 61°14' E 028°49'0 0.0
2017-Jun-26 12:28N 61°14' E 028°49'0 0.0
2017-Jun-26 11:59N 61°14' E 028°49'0 0.0
2017-Jun-26 11:26N 61°14' E 028°49'0 0.0
2017-Jun-26 10:59N 61°14' E 028°49'0 0.0
2017-Jun-26 10:30N 61°14' E 028°49'0 0.0
2017-Jun-26 10:00N 61°14' E 028°49'0 0.0
2017-Jun-26 09:30N 61°14' E 028°49'0 0.0
2017-Jun-26 08:58N 61°14' E 028°49'0 0.0
2017-Jun-26 08:28N 61°14' E 028°49'0 0.0
2017-Jun-26 07:58N 61°14' E 028°49'0 0.0
2017-Jun-26 07:30N 61°14' E 028°49'0 0.0
2017-Jun-26 07:00N 61°14' E 028°49'0 0.0
2017-Jun-26 06:30N 61°14' E 028°49'0 0.0
2017-Jun-26 06:00N 61°14' E 028°49'0 0.0
2017-Jun-26 05:30N 61°14' E 028°49'0 0.0
2017-Jun-26 05:01N 61°14' E 028°49'0 0.0
2017-Jun-26 04:30N 61°14' E 028°49'0 0.0
2017-Jun-26 04:00N 61°14' E 028°49'0 0.0
2017-Jun-26 03:30N 61°14' E 028°49'0 0.2
2017-Jun-26 03:00N 61°14' E 028°49'3 5.4
2017-Jun-26 02:30N 61°14' E 028°44'4 7.8
2017-Jun-26 02:00N 61°12' E 028°37'4 7.7
2017-Jun-26 01:30N 61°11' E 028°30'4 7.3
2017-Jun-26 01:00N 61°10' E 028°23'3 6.0
2017-Jun-26 00:30N 61°07' E 028°18'3 5.8
2017-Jun-26 00:00N 61°05' E 028°16'1 2.0
2017-Jun-25 23:30N 61°04' E 028°18'1 1.3
2017-Jun-25 23:00N 61°04' E 028°19'2 3.6
2017-Jun-25 22:30N 61°03' E 028°22'1 2.2
2017-Jun-25 22:00N 61°02' E 028°24'0 0.7
2017-Jun-25 21:30N 61°02' E 028°25'3 5.3
2017-Jun-25 21:00N 61°00' E 028°28'3 5.6
2017-Jun-25 20:30N 60°58' E 028°32'3 5.7
2017-Jun-25 20:00N 60°56' E 028°36'1 3.0
2017-Jun-25 19:30N 60°55' E 028°37'0 0.2
2017-Jun-25 19:00N 60°54' E 028°37'1 1.3
2017-Jun-25 18:30N 60°54' E 028°37'1 1.5
2017-Jun-25 18:00N 60°53' E 028°38'1 1.4
2017-Jun-25 17:30N 60°53' E 028°39'3 6.3
2017-Jun-25 17:00N 60°50' E 028°44'1 1.3
2017-Jun-25 16:30N 60°50' E 028°44'1 2.5
2017-Jun-25 16:00N 60°49' E 028°44'0 0.2
2017-Jun-25 15:30N 60°49' E 028°44'0 0.0
2017-Jun-25 15:00N 60°49' E 028°44'1 2.5
2017-Jun-25 14:30N 60°47' E 028°43'6 6.3
2017-Jun-25 13:30N 60°41' E 028°41'4 7.9
2017-Jun-25 13:01N 60°39' E 028°35'4 7.6
2017-Jun-25 12:31N 60°36' E 028°30'4 7.5
2017-Jun-25 12:00N 60°34' E 028°24'4 7.5
2017-Jun-25 11:30N 60°30' E 028°22'4 7.5
2017-Jun-25 11:00N 60°27' E 028°20'4 8.3
2017-Jun-25 10:30N 60°23' E 028°21'4 7.8
2017-Jun-25 10:01N 60°19' E 028°24'4 8.1
2017-Jun-25 09:30N 60°16' E 028°30'4 8.0
2017-Jun-25 09:00N 60°14' E 028°37'4 7.9
2017-Jun-25 08:30N 60°12' E 028°44'4 7.8
2017-Jun-25 08:00N 60°10' E 028°51'4 7.6
2017-Jun-25 07:30N 60°08' E 028°58'4 7.6
2017-Jun-25 07:00N 60°07' E 029°04'5 7.4
2017-Jun-25 06:21N 60°05' E 029°13'13 7.5
2017-Jun-25 04:40N 60°00' E 029°37'1 7.6
2017-Jun-25 04:28N 59°60' E 029°40'4 7.6
2017-Jun-25 04:00N 59°59' E 029°46'1 1.7
2017-Jun-25 03:30N 59°58' E 029°48'0 0.1
2017-Jun-25 03:00N 59°58' E 029°48'3 7.0
2017-Jun-25 02:31N 59°57' E 029°54'4 7.0
2017-Jun-25 02:01N 59°55' E 030°00'4 7.6
2017-Jun-25 01:30N 59°54' E 030°08'3 5.7
2017-Jun-25 01:00N 59°54' E 030°13'4 7.1
2017-Jun-25 00:30N 59°56' E 030°18'3 5.9
2017-Jun-25 00:01N 59°57' E 030°24'3 5.5
2017-Jun-24 23:30N 59°55' E 030°25'3 0.2
2017-Jun-24 07:59N 59°52' E 030°29'  
2017-Jun-18 23:32N 59°56' E 030°24'4 0.3
2017-Jun-18 11:38N 59°56' E 030°16'1 6.7
2017-Jun-18 11:30N 59°55' E 030°15'4 8.1
2017-Jun-18 11:00N 59°56' E 030°08'4 8.4
2017-Jun-18 10:28N 59°56' E 029°59'8 8.2
2017-Jun-18 09:28N 59°59' E 029°44'3 7.5
2017-Jun-18 09:00N 60°00' E 029°37'4 8.6
2017-Jun-18 08:30N 60°02' E 029°29'5 9.0
2017-Jun-18 08:00N 60°04' E 029°22'5 9.1
2017-Jun-18 07:30N 60°08' E 029°16'4 8.5
2017-Jun-18 07:00N 60°09' E 029°08'5 9.1
2017-Jun-18 06:30N 60°09' E 028°59'4 9.0
2017-Jun-18 06:00N 60°11' E 028°51'5 9.1
2017-Jun-18 05:30N 60°12' E 028°42'  

Dump ship's entire track history